Time;durP1;ratioP1;P1;durP2;ratioP2;P2;SDS_P1;SDS_P2;PMS_P1;PMS_P2;Temp;Humidity;BMP_temperature;BMP_pressure;BME280_temperature;BME280_humidity;BME280_pressure;Samples;Min_cycle;Max_cycle;Signal;HPM_P1;HPM_P2
2023/10/25 00:01:07;;;;;;;5.88;3.03;;;11.00;99.90;;;;;;5056956;28;20533;-80
2023/10/25 00:03:33;;;;;;;11.63;3.38;;;11.00;99.90;;;;;;5058465;28;20295;-82
2023/10/25 00:05:59;;;;;;;7.07;3.30;;;11.00;99.90;;;;;;5054688;28;20105;-81
2023/10/25 00:08:25;;;;;;;11.05;3.97;;;11.00;99.90;;;;;;5060402;28;20099;-81
2023/10/25 00:10:50;;;;;;;6.40;3.30;;;11.00;99.90;;;;;;5062437;28;20021;-81
2023/10/25 00:13:16;;;;;;;11.43;3.15;;;10.90;99.90;;;;;;5057586;28;20043;-82
2023/10/25 00:15:42;;;;;;;11.63;3.58;;;11.00;99.90;;;;;;5055954;28;20025;-81
2023/10/25 00:18:08;;;;;;;4.80;3.15;;;11.00;99.90;;;;;;5054225;28;20013;-80
2023/10/25 00:20:34;;;;;;;12.93;3.40;;;10.90;99.90;;;;;;5057639;28;20025;-81
2023/10/25 00:23:00;;;;;;;9.82;3.90;;;10.90;99.90;;;;;;5048649;28;20048;-81
2023/10/25 00:25:25;;;;;;;9.35;3.40;;;10.90;99.90;;;;;;5058989;28;20467;-81
2023/10/25 00:27:51;;;;;;;8.80;3.72;;;10.90;99.90;;;;;;5055592;28;20057;-82
2023/10/25 00:30:17;;;;;;;8.35;3.10;;;10.90;99.90;;;;;;5062377;28;20113;-82
2023/10/25 00:32:42;;;;;;;8.57;2.90;;;10.90;99.90;;;;;;5050313;28;20063;-82
2023/10/25 00:35:08;;;;;;;9.13;2.90;;;10.90;99.90;;;;;;5063658;28;20074;-80
2023/10/25 00:37:34;;;;;;;14.40;2.97;;;10.90;99.90;;;;;;5048218;28;20028;-81
2023/10/25 00:39:59;;;;;;;10.20;3.08;;;10.90;99.90;;;;;;5063183;28;20379;-81
2023/10/25 00:42:25;;;;;;;9.82;3.30;;;10.90;99.90;;;;;;5058607;28;20074;-80
2023/10/25 00:44:51;;;;;;;10.98;2.92;;;10.90;99.90;;;;;;5053450;28;20025;-80
2023/10/25 00:47:16;;;;;;;7.10;2.80;;;10.90;99.90;;;;;;5056495;28;20044;-80
2023/10/25 00:49:42;;;;;;;11.05;3.35;;;10.90;99.90;;;;;;5055248;28;20151;-80
2023/10/25 00:52:08;;;;;;;9.45;2.92;;;10.90;99.90;;;;;;5062988;28;20029;-81
2023/10/25 00:54:35;;;;;;;10.80;3.10;;;10.80;99.90;;;;;;5047405;28;20021;-81
2023/10/25 00:57:02;;;;;;;9.15;2.60;;;10.80;99.90;;;;;;5062929;28;20041;-83
2023/10/25 00:59:29;;;;;;;6.22;2.38;;;10.80;99.90;;;;;;5039824;28;20016;-80
2023/10/25 01:01:56;;;;;;;9.90;2.72;;;10.90;99.90;;;;;;5055290;28;20056;-81
2023/10/25 01:04:22;;;;;;;7.97;2.70;;;10.80;99.90;;;;;;5051976;28;20062;-81
2023/10/25 01:06:47;;;;;;;9.75;2.97;;;10.80;99.90;;;;;;5058530;28;20025;-81
2023/10/25 01:09:13;;;;;;;7.22;2.83;;;10.80;99.90;;;;;;5051318;28;20135;-83
2023/10/25 01:11:39;;;;;;;7.20;2.65;;;10.80;99.90;;;;;;5059136;28;20032;-81
2023/10/25 01:14:05;;;;;;;7.68;2.75;;;10.80;99.90;;;;;;5063325;28;20025;-81
2023/10/25 01:16:30;;;;;;;9.57;2.65;;;10.80;99.90;;;;;;5060964;28;20059;-81
2023/10/25 01:18:56;;;;;;;10.10;3.15;;;10.80;99.90;;;;;;5048638;28;20032;-80
2023/10/25 01:21:21;;;;;;;9.07;2.88;;;10.80;99.90;;;;;;5060959;28;20024;-82
2023/10/25 01:23:53;;;;;;;11.43;3.22;;;10.70;99.90;;;;;;5057295;28;20493;-81
2023/10/25 01:26:19;;;;;;;8.48;3.35;;;10.70;99.90;;;;;;5054106;28;20016;-80
2023/10/25 01:28:44;;;;;;;7.55;3.08;;;10.60;99.90;;;;;;5059350;28;20032;-81
2023/10/25 01:31:10;;;;;;;8.20;2.63;;;10.70;99.90;;;;;;5062228;28;20029;-81
2023/10/25 01:33:35;;;;;;;9.75;2.85;;;10.70;99.90;;;;;;5055109;28;20024;-80
2023/10/25 01:36:01;;;;;;;10.18;3.00;;;10.60;99.90;;;;;;5053639;28;20021;-81
2023/10/25 01:38:27;;;;;;;9.57;2.90;;;10.60;99.90;;;;;;5062565;28;20032;-81
2023/10/25 01:40:52;;;;;;;13.15;3.30;;;10.60;99.90;;;;;;5059172;28;20013;-81
2023/10/25 01:43:18;;;;;;;8.38;3.25;;;10.60;99.90;;;;;;5051544;28;20028;-81
2023/10/25 01:45:43;;;;;;;10.55;3.13;;;10.50;99.90;;;;;;5056646;28;20479;-80
2023/10/25 01:48:09;;;;;;;9.13;3.08;;;10.50;99.90;;;;;;5052052;28;20025;-81
2023/10/25 01:50:35;;;;;;;5.53;2.53;;;10.50;99.90;;;;;;5055189;28;20055;-81
2023/10/25 01:53:00;;;;;;;9.38;3.15;;;10.50;99.90;;;;;;5063148;28;20576;-82
2023/10/25 01:55:26;;;;;;;7.60;2.55;;;10.50;99.90;;;;;;5053699;28;20036;-82
2023/10/25 01:57:51;;;;;;;8.85;2.92;;;10.60;99.90;;;;;;5061671;28;20049;-81
2023/10/25 02:00:17;;;;;;;7.75;2.90;;;10.60;99.90;;;;;;5059638;28;20479;-81
2023/10/25 02:02:43;;;;;;;6.00;2.60;;;10.50;99.90;;;;;;5053727;28;20031;-81
2023/10/25 02:05:08;;;;;;;7.80;2.90;;;10.50;99.90;;;;;;5057452;28;20028;-81
2023/10/25 02:07:34;;;;;;;6.07;2.53;;;10.60;99.90;;;;;;5060166;28;20040;-81
2023/10/25 02:10:00;;;;;;;5.60;2.50;;;10.60;99.90;;;;;;5046341;28;20029;-81
2023/10/25 02:12:26;;;;;;;9.10;3.00;;;10.60;99.90;;;;;;5049020;28;20025;-82
2023/10/25 02:14:51;;;;;;;7.20;2.28;;;10.60;99.90;;;;;;5061011;28;20017;-82
2023/10/25 02:17:17;;;;;;;7.00;2.92;;;10.60;99.90;;;;;;5060354;28;20036;-82
2023/10/25 02:19:45;;;;;;;8.73;2.40;;;10.60;99.90;;;;;;5053672;28;20477;-81
2023/10/25 02:22:11;;;;;;;6.00;2.40;;;10.60;99.90;;;;;;5056446;28;20029;-81
2023/10/25 02:24:37;;;;;;;4.65;2.10;;;10.60;99.90;;;;;;5060090;28;20135;-81
2023/10/25 02:27:03;;;;;;;8.48;2.58;;;10.60;99.90;;;;;;5047429;28;20112;-82
2023/10/25 02:29:29;;;;;;;4.90;2.28;;;10.50;99.90;;;;;;5048652;28;20171;-82
2023/10/25 02:31:54;;;;;;;6.70;2.22;;;10.50;99.90;;;;;;5060777;28;20064;-82
2023/10/25 02:34:20;;;;;;;10.02;2.70;;;10.50;99.90;;;;;;5047404;28;20125;-81
2023/10/25 02:36:45;;;;;;;9.30;2.67;;;10.50;99.90;;;;;;5061036;28;20021;-81
2023/10/25 02:39:11;;;;;;;9.32;2.70;;;10.50;99.90;;;;;;5058795;28;20021;-81
2023/10/25 02:41:37;;;;;;;6.25;2.50;;;10.40;99.90;;;;;;5066262;28;20051;-81
2023/10/25 02:44:03;;;;;;;6.43;2.40;;;10.40;99.90;;;;;;5057992;28;20021;-81
2023/10/25 02:46:29;;;;;;;6.75;2.60;;;10.40;99.90;;;;;;5061347;28;20390;-81
2023/10/25 02:48:54;;;;;;;9.38;3.15;;;10.40;99.90;;;;;;5047207;28;20021;-81
2023/10/25 02:51:20;;;;;;;7.05;2.90;;;10.30;99.90;;;;;;5060175;28;20591;-81
2023/10/25 02:53:46;;;;;;;8.55;2.70;;;10.30;99.90;;;;;;5062325;28;20538;-80
2023/10/25 02:56:11;;;;;;;9.25;3.10;;;10.30;99.90;;;;;;5047051;28;20506;-81
2023/10/25 02:58:37;;;;;;;6.50;2.78;;;10.30;99.90;;;;;;5047246;28;20474;-81
2023/10/25 03:01:03;;;;;;;6.10;3.15;;;10.30;99.90;;;;;;5050474;28;20017;-81
2023/10/25 03:03:31;;;;;;;9.50;2.95;;;10.30;99.90;;;;;;5055928;28;20028;-81
2023/10/25 03:05:57;;;;;;;7.63;2.95;;;10.20;99.90;;;;;;5061053;28;20022;-81
2023/10/25 03:08:23;;;;;;;10.85;2.95;;;10.30;99.90;;;;;;5056561;28;20032;-81
2023/10/25 03:10:49;;;;;;;6.43;3.05;;;10.20;99.90;;;;;;5064558;28;20024;-81
2023/10/25 03:13:15;;;;;;;5.55;2.85;;;10.20;99.90;;;;;;5045787;28;20520;-81
2023/10/25 03:15:41;;;;;;;9.02;2.80;;;10.20;99.90;;;;;;5046943;28;20104;-81
2023/10/25 03:18:09;;;;;;;7.45;3.22;;;10.20;99.90;;;;;;5051525;28;20111;-81
2023/10/25 03:20:35;;;;;;;8.13;3.03;;;10.20;99.90;;;;;;5054902;28;20052;-81
2023/10/25 03:23:00;;;;;;;8.23;3.17;;;10.10;99.90;;;;;;5063927;28;20110;-81
2023/10/25 03:25:26;;;;;;;6.22;2.75;;;10.10;99.90;;;;;;5059429;28;20055;-81
2023/10/25 03:27:52;;;;;;;7.68;3.17;;;10.00;99.90;;;;;;5055422;28;20048;-81
2023/10/25 03:30:18;;;;;;;6.85;2.97;;;10.00;99.90;;;;;;5061888;28;20021;-81
2023/10/25 03:32:44;;;;;;;6.05;2.50;;;10.00;99.90;;;;;;5050999;28;20036;-81
2023/10/25 03:35:10;;;;;;;6.35;3.38;;;10.00;99.90;;;;;;5064753;28;20501;-81
2023/10/25 03:37:39;;;;;;;8.05;3.08;;;9.90;99.90;;;;;;5062489;28;20086;-81
2023/10/25 03:40:10;;;;;;;11.40;3.42;;;9.90;99.90;;;;;;5051946;28;20017;-81
2023/10/25 03:42:36;;;;;;;7.40;3.40;;;9.90;99.90;;;;;;5060812;28;20025;-81
2023/10/25 03:45:02;;;;;;;11.88;3.28;;;9.80;99.90;;;;;;5051701;28;20371;-81
2023/10/25 03:47:28;;;;;;;9.13;3.65;;;9.80;99.90;;;;;;5050084;28;20370;-80
2023/10/25 03:49:54;;;;;;;7.47;3.15;;;9.80;99.90;;;;;;5064653;28;20015;-82
2023/10/25 03:52:20;;;;;;;6.15;3.65;;;9.80;99.90;;;;;;5043333;28;20028;-81
2023/10/25 03:54:45;;;;;;;11.02;3.95;;;9.70;99.90;;;;;;5034883;28;20021;-81
2023/10/25 03:57:11;;;;;;;5.57;3.40;;;9.70;99.90;;;;;;5041947;28;20074;-81
2023/10/25 03:59:37;;;;;;;8.35;3.40;;;9.70;99.90;;;;;;5045757;28;20057;-81
2023/10/25 04:02:02;;;;;;;8.52;3.58;;;9.70;99.90;;;;;;5042209;28;20059;-81
2023/10/25 04:04:28;;;;;;;10.77;3.67;;;9.60;99.90;;;;;;5045210;28;20478;-81
2023/10/25 04:06:54;;;;;;;7.82;3.88;;;9.60;99.90;;;;;;5039606;28;20033;-83
2023/10/25 04:09:19;;;;;;;9.40;3.30;;;9.60;99.90;;;;;;5043917;28;20017;-81
2023/10/25 04:11:45;;;;;;;9.98;3.58;;;9.50;99.90;;;;;;5041044;28;20760;-81
2023/10/25 04:14:11;;;;;;;9.05;3.78;;;9.50;99.90;;;;;;5043462;28;20037;-81
2023/10/25 04:16:37;;;;;;;8.38;3.85;;;9.50;99.90;;;;;;5046872;28;20425;-81
2023/10/25 04:19:03;;;;;;;8.60;3.97;;;9.40;99.90;;;;;;5062225;28;20021;-81
2023/10/25 04:21:29;;;;;;;6.72;3.90;;;9.40;99.90;;;;;;5056679;28;20074;-81
2023/10/25 04:23:54;;;;;;;6.25;3.65;;;9.40;99.90;;;;;;5058811;28;20025;-81
2023/10/25 04:26:20;;;;;;;7.78;3.92;;;9.40;99.90;;;;;;5063376;28;20032;-82
2023/10/25 04:28:46;;;;;;;9.40;4.20;;;9.40;99.90;;;;;;5057869;28;20028;-81
2023/10/25 04:31:12;;;;;;;9.35;3.92;;;9.40;99.90;;;;;;5068083;28;20086;-81
2023/10/25 04:33:38;;;;;;;8.73;3.75;;;9.40;99.90;;;;;;5054984;28;20150;-81
2023/10/25 04:36:05;;;;;;;9.82;3.78;;;9.40;99.90;;;;;;5054343;28;20561;-81
2023/10/25 04:38:31;;;;;;;7.32;3.83;;;9.40;99.90;;;;;;5068966;28;20070;-81
2023/10/25 04:40:57;;;;;;;9.35;4.40;;;9.40;99.90;;;;;;5056235;28;20443;-81
2023/10/25 04:43:23;;;;;;;7.97;3.80;;;9.40;99.90;;;;;;5049678;28;20078;-81
2023/10/25 04:45:51;;;;;;;8.48;4.00;;;9.40;99.90;;;;;;5058979;28;20435;-82
2023/10/25 04:48:17;;;;;;;8.45;3.63;;;9.40;99.90;;;;;;5051819;28;20017;-80
2023/10/25 04:50:43;;;;;;;7.63;3.92;;;9.40;99.90;;;;;;5055454;28;20041;-80
2023/10/25 04:53:09;;;;;;;8.85;4.20;;;9.40;99.90;;;;;;5053215;28;20115;-81
2023/10/25 04:55:35;;;;;;;9.45;3.50;;;9.50;99.90;;;;;;5061403;28;20425;-81
2023/10/25 04:58:01;;;;;;;8.80;3.80;;;9.50;99.90;;;;;;5056843;28;20381;-81
2023/10/25 05:00:28;;;;;;;9.63;3.60;;;9.50;99.90;;;;;;5053644;28;20143;-81
2023/10/25 05:02:55;;;;;;;7.65;3.47;;;9.50;99.90;;;;;;5061065;28;20112;-81
2023/10/25 05:05:20;;;;;;;6.57;3.45;;;9.50;99.90;;;;;;5059547;28;20024;-82
2023/10/25 05:07:46;;;;;;;6.63;3.38;;;9.60;99.90;;;;;;5052866;28;20481;-81
2023/10/25 05:10:13;;;;;;;8.55;3.53;;;9.60;99.90;;;;;;5058023;28;20119;-82
2023/10/25 05:12:41;;;;;;;7.25;3.13;;;9.60;99.90;;;;;;5060672;28;20115;-81
2023/10/25 05:15:08;;;;;;;11.73;3.67;;;9.70;99.90;;;;;;5056813;28;20020;-81
2023/10/25 05:17:34;;;;;;;6.90;3.45;;;9.70;99.90;;;;;;5052325;28;20063;-81
2023/10/25 05:20:02;;;;;;;7.32;3.35;;;9.70;99.90;;;;;;5055900;28;20029;-81
2023/10/25 05:22:31;;;;;;;6.57;2.75;;;9.70;99.90;;;;;;5054253;28;20044;-82
2023/10/25 05:24:57;;;;;;;8.45;3.15;;;9.80;99.90;;;;;;5061336;28;20070;-82
2023/10/25 05:27:23;;;;;;;5.65;3.03;;;9.80;99.90;;;;;;5054340;28;20025;-82
2023/10/25 05:29:49;;;;;;;4.35;2.80;;;9.80;99.90;;;;;;5061915;28;20024;-81
2023/10/25 05:32:18;;;;;;;9.93;3.70;;;9.80;99.90;;;;;;5057518;28;20500;-81
2023/10/25 05:34:44;;;;;;;8.50;3.13;;;9.90;99.90;;;;;;5053072;28;20035;-81
2023/10/25 05:37:10;;;;;;;6.38;3.20;;;9.90;99.90;;;;;;5060145;28;20021;-81
2023/10/25 05:39:36;;;;;;;6.47;2.88;;;9.90;99.90;;;;;;5047294;28;20504;-81
2023/10/25 05:42:04;;;;;;;8.43;2.88;;;9.90;99.90;;;;;;5061590;28;20021;-81
2023/10/25 05:44:31;;;;;;;9.57;3.08;;;9.90;99.90;;;;;;5054359;28;20401;-81
2023/10/25 05:46:57;;;;;;;7.80;2.90;;;9.90;99.90;;;;;;5056254;28;20063;-81
2023/10/25 05:49:23;;;;;;;5.97;2.72;;;10.00;99.90;;;;;;5052708;28;20057;-81
2023/10/25 05:51:49;;;;;;;7.78;3.03;;;9.90;99.90;;;;;;5050787;28;20464;-81
2023/10/25 05:54:14;;;;;;;5.82;3.28;;;10.00;99.90;;;;;;5049062;28;20021;-83
2023/10/25 05:56:40;;;;;;;9.35;4.22;;;10.00;99.90;;;;;;5050320;28;20439;-81
2023/10/25 05:59:07;;;;;;;7.97;3.03;;;10.00;99.90;;;;;;5062272;28;20051;-81
2023/10/25 06:02:09;;;;;;;9.80;3.80;;;10.00;99.90;;;;;;5055193;28;20028;-81
2023/10/25 06:04:37;;;;;;;8.65;3.83;;;10.00;99.90;;;;;;5036634;28;20287;-81
2023/10/25 06:07:04;;;;;;;8.07;3.85;;;10.00;99.90;;;;;;5040537;28;20051;-80
2023/10/25 06:09:30;;;;;;;8.43;3.85;;;10.00;99.90;;;;;;5055594;28;20024;-81
2023/10/25 06:11:56;;;;;;;9.65;3.92;;;10.00;99.90;;;;;;5047102;28;20028;-80
2023/10/25 06:14:22;;;;;;;10.02;4.07;;;10.10;99.90;;;;;;5050483;28;20055;-81
2023/10/25 06:16:48;;;;;;;11.60;3.85;;;10.10;99.90;;;;;;5041937;28;20101;-81
2023/10/25 06:19:13;;;;;;;9.73;4.53;;;10.00;99.90;;;;;;5055532;28;20025;-81
2023/10/25 06:21:39;;;;;;;11.27;4.15;;;10.10;99.90;;;;;;5047351;28;20108;-81
2023/10/25 06:24:05;;;;;;;6.05;3.55;;;10.10;99.90;;;;;;5047699;28;20370;-81
2023/10/25 06:26:31;;;;;;;6.97;3.70;;;10.10;99.90;;;;;;5046948;28;20561;-81
2023/10/25 06:28:56;;;;;;;8.77;3.92;;;10.10;99.90;;;;;;5030128;28;20167;-80
2023/10/25 06:31:22;;;;;;;7.45;3.83;;;10.10;99.90;;;;;;5055718;28;20389;-80
2023/10/25 06:33:48;;;;;;;9.13;3.95;;;10.10;99.90;;;;;;5061210;28;20039;-80
2023/10/25 06:36:14;;;;;;;10.75;3.50;;;10.10;99.90;;;;;;5053213;28;20653;-80
2023/10/25 06:38:40;;;;;;;11.75;3.67;;;10.10;99.90;;;;;;5057416;28;20436;-80
2023/10/25 06:41:17;;;;;;;10.43;3.95;;;10.10;99.90;;;;;;5054058;28;20120;-79
2023/10/25 06:43:43;;;;;;;6.25;3.88;;;10.10;99.90;;;;;;5052503;28;20031;-80
2023/10/25 06:46:10;;;;;;;8.48;3.88;;;10.10;99.90;;;;;;5058609;28;20544;-80
2023/10/25 06:48:36;;;;;;;9.68;3.58;;;10.10;99.90;;;;;;5060809;28;20025;-79
2023/10/25 06:51:06;;;;;;;8.93;3.78;;;10.10;99.90;;;;;;5042297;28;20117;-81
2023/10/25 06:53:32;;;;;;;11.23;3.80;;;10.10;99.90;;;;;;5048858;28;20573;-81
2023/10/25 06:55:59;;;;;;;9.38;4.00;;;10.10;99.90;;;;;;5056574;28;20033;-80
2023/10/25 06:58:26;;;;;;;9.95;4.10;;;10.20;99.90;;;;;;5052402;28;20075;-80
2023/10/25 07:00:55;;;;;;;10.00;4.22;;;10.10;99.90;;;;;;5048006;28;20013;-81
2023/10/25 07:03:26;;;;;;;8.27;3.92;;;10.20;99.90;;;;;;5048471;28;20051;-80
2023/10/25 07:05:53;;;;;;;;;;;10.20;99.90;;;;;;5059335;28;20033;-81
2023/10/25 07:08:21;;;;;;;9.15;3.75;;;10.20;99.90;;;;;;5039127;28;20572;-80
2023/10/25 07:10:47;;;;;;;8.25;4.05;;;10.20;99.90;;;;;;5050662;28;20546;-80
2023/10/25 07:13:13;;;;;;;7.93;3.85;;;10.20;99.90;;;;;;5058611;28;20035;-80
2023/10/25 07:15:38;;;;;;;7.30;3.97;;;10.20;99.90;;;;;;5062127;28;20020;-80
2023/10/25 07:18:04;;;;;;;8.93;4.05;;;10.20;99.90;;;;;;5049315;28;20393;-80
2023/10/25 07:20:31;;;;;;;7.55;3.80;;;10.30;99.90;;;;;;5049547;28;20029;-79
2023/10/25 07:22:57;;;;;;;8.32;4.05;;;10.30;99.90;;;;;;5049482;28;20439;-81
2023/10/25 07:25:22;;;;;;;6.95;3.65;;;10.30;99.90;;;;;;5054106;28;20024;-81
2023/10/25 07:27:48;;;;;;;5.10;3.38;;;10.30;99.90;;;;;;5050188;28;20691;-82
2023/10/25 07:30:14;;;;;;;10.52;4.13;;;10.40;99.90;;;;;;5048573;28;20531;-78
2023/10/25 07:32:40;;;;;;;9.30;3.83;;;10.40;99.90;;;;;;5049249;28;20115;-81
2023/10/25 07:35:06;;;;;;;8.30;3.63;;;10.40;99.90;;;;;;5048755;28;20078;-79
2023/10/25 07:37:43;;;;;;;8.70;3.65;;;10.50;99.90;;;;;;5048477;28;20028;-80
2023/10/25 07:40:09;;;;;;;8.63;3.60;;;10.50;99.90;;;;;;5042204;28;20025;-80
2023/10/25 07:42:35;;;;;;;9.38;3.90;;;10.50;99.90;;;;;;5059555;28;20024;-80
2023/10/25 07:45:01;;;;;;;7.53;3.90;;;10.50;99.90;;;;;;5049264;28;20059;-80
2023/10/25 07:47:26;;;;;;;7.55;4.00;;;10.50;99.90;;;;;;5054376;28;20012;-80
2023/10/25 07:49:52;;;;;;;7.82;3.45;;;10.60;99.90;;;;;;5055311;28;20025;-79
2023/10/25 07:52:18;;;;;;;7.60;3.83;;;10.60;99.90;;;;;;5054783;28;20103;-80
2023/10/25 07:54:43;;;;;;;8.70;4.40;;;10.60;99.90;;;;;;5050052;28;20363;-80
2023/10/25 07:57:09;;;;;;;9.30;4.75;;;10.60;99.90;;;;;;5047691;28;20044;-80
2023/10/25 07:59:36;;;;;;;8.15;4.43;;;10.70;99.90;;;;;;5056330;28;20481;-80
2023/10/25 08:02:02;;;;;;;9.25;4.40;;;10.70;99.90;;;;;;5060920;28;20021;-80
2023/10/25 08:04:28;;;;;;;7.07;3.70;;;10.70;99.90;;;;;;5055348;28;20020;-79
2023/10/25 08:06:53;;;;;;;11.48;5.15;;;10.70;99.90;;;;;;5058497;28;20478;-80
2023/10/25 08:09:20;;;;;;;12.30;5.05;;;10.70;99.90;;;;;;5048812;28;20024;-80
2023/10/25 08:11:45;;;;;;;9.20;4.65;;;10.70;99.90;;;;;;5058002;28;20111;-79
2023/10/25 08:14:11;;;;;;;9.10;5.38;;;10.80;99.90;;;;;;5053764;28;20117;-80
2023/10/25 08:16:39;;;;;;;8.95;4.35;;;10.80;99.90;;;;;;5057901;28;20093;-79
2023/10/25 08:19:09;;;;;;;7.05;4.53;;;10.80;99.90;;;;;;5053142;28;20018;-80
2023/10/25 08:21:35;;;;;;;13.65;5.50;;;10.80;99.90;;;;;;5047628;28;20461;-78
2023/10/25 08:24:02;;;;;;;9.80;5.20;;;10.80;99.90;;;;;;5047816;28;20032;-79
2023/10/25 08:26:28;;;;;;;9.82;5.40;;;10.80;99.90;;;;;;5045947;28;20029;-79
2023/10/25 08:28:54;;;;;;;8.07;5.20;;;10.80;99.90;;;;;;5053921;28;20021;-78
2023/10/25 08:31:20;;;;;;;10.30;5.32;;;10.90;99.90;;;;;;5049768;28;20039;-78
2023/10/25 08:33:46;;;;;;;7.85;4.20;;;10.80;99.90;;;;;;5051796;28;20033;-80
2023/10/25 08:36:12;;;;;;;9.50;4.70;;;10.90;99.90;;;;;;5047806;28;20032;-79
2023/10/25 08:38:37;;;;;;;8.77;4.82;;;10.90;99.90;;;;;;5060489;28;20401;-79
2023/10/25 08:41:05;;;;;;;7.55;4.45;;;10.90;99.90;;;;;;5056211;28;20075;-80
2023/10/25 08:43:35;;;;;;;7.15;3.85;;;10.90;99.90;;;;;;5062252;28;20548;-79
2023/10/25 08:46:05;;;;;;;8.38;4.10;;;10.90;99.90;;;;;;5046729;28;20094;-79
2023/10/25 08:48:32;;;;;;;7.72;3.63;;;11.00;99.90;;;;;;5058847;28;20515;-79
2023/10/25 08:50:59;;;;;;;9.35;4.60;;;11.00;99.90;;;;;;5057389;28;20071;-79
2023/10/25 08:53:27;;;;;;;8.80;4.18;;;11.00;99.90;;;;;;5052263;28;20190;-80
2023/10/25 08:55:54;;;;;;;8.65;3.80;;;11.00;99.90;;;;;;5062024;28;20495;-80
2023/10/25 08:58:20;;;;;;;6.72;3.47;;;11.00;99.90;;;;;;5047988;28;20024;-80
2023/10/25 09:00:46;;;;;;;7.47;4.00;;;11.00;99.90;;;;;;5062399;28;20038;-79
2023/10/25 09:03:34;;;;;;;6.35;3.95;;;11.10;99.90;;;;;;5056742;28;20119;-78
2023/10/25 09:06:01;;;;;;;8.10;3.83;;;11.10;99.90;;;;;;5054075;28;20111;-80
2023/10/25 09:08:27;;;;;;;9.10;4.00;;;11.10;99.90;;;;;;5058116;28;20096;-80
2023/10/25 09:11:05;;;;;;;9.63;4.32;;;11.10;99.90;;;;;;5062264;28;20522;-80
2023/10/25 09:13:32;;;;;;;6.97;3.88;;;11.10;99.90;;;;;;5056074;28;20024;-79
2023/10/25 09:16:08;;;;;;;8.82;4.20;;;11.20;99.90;;;;;;5054069;28;20021;-79
2023/10/25 09:18:35;;;;;;;8.80;4.10;;;11.20;99.90;;;;;;5058342;28;20060;-79
2023/10/25 09:21:02;;;;;;;8.77;4.55;;;11.10;99.90;;;;;;5050991;28;20017;-78
2023/10/25 09:23:28;;;;;;;8.00;4.55;;;11.20;99.90;;;;;;5054684;28;20024;-78
2023/10/25 09:26:18;;;;;;;8.70;4.43;;;11.20;99.90;;;;;;5052399;28;20036;-78
2023/10/25 09:28:47;;;;;;;8.77;4.28;;;11.20;99.90;;;;;;5038249;28;20032;-78
2023/10/25 09:31:28;;;;;;;8.32;4.07;;;11.20;99.90;;;;;;5040364;28;20036;-78
2023/10/25 09:33:59;;;;;;;7.30;4.10;;;11.20;99.90;;;;;;5031923;28;20036;-76
2023/10/25 09:36:26;;;;;;;;;;;11.30;99.90;;;;;;5035730;28;20075;-77
2023/10/25 09:38:53;;;;;;;15.32;4.50;;;11.30;99.90;;;;;;5035968;28;19935;-78
2023/10/25 09:41:19;;;;;;;11.02;5.07;;;11.30;99.90;;;;;;5043608;28;20477;-78
2023/10/25 09:43:52;;;;;;;8.13;3.22;;;11.30;99.90;;;;;;5044213;28;20027;-78
2023/10/25 09:46:23;;;;;;;10.43;4.78;;;11.30;99.90;;;;;;5039315;28;20310;-78
2023/10/25 09:48:55;;;;;;;7.72;3.97;;;11.30;99.90;;;;;;5041848;28;20144;-78
2023/10/25 09:51:40;;;;;;;7.25;4.10;;;11.30;99.90;;;;;;5042192;28;20017;-79
2023/10/25 09:54:12;;;;;;;6.47;3.97;;;11.30;99.90;;;;;;5042795;28;20040;-79
2023/10/25 09:56:39;;;;;;;8.93;4.40;;;11.40;99.90;;;;;;5048641;28;20048;-79
2023/10/25 09:59:07;;;;;;;6.18;3.53;;;11.40;99.90;;;;;;5052591;28;20033;-79
2023/10/25 10:01:34;;;;;;;8.80;4.13;;;11.40;99.90;;;;;;5049039;28;20163;-78
2023/10/25 10:04:33;;;;;;;8.95;4.03;;;11.40;99.90;;;;;;5060838;28;20738;-78
2023/10/25 10:07:07;;;;;;;12.35;4.60;;;11.40;99.90;;;;;;5049668;28;20068;-78
2023/10/25 10:09:52;;;;;;;12.45;4.43;;;11.40;99.90;;;;;;5047070;28;20075;-78
2023/10/25 10:12:19;;;;;;;8.52;4.50;;;11.40;99.90;;;;;;5041616;28;20103;-78
2023/10/25 10:14:45;;;;;;;8.20;3.90;;;11.40;99.90;;;;;;5041327;28;20070;-78
2023/10/25 10:17:16;;;;;;;8.30;3.88;;;11.40;99.90;;;;;;5047782;28;20029;-79
2023/10/25 10:19:46;;;;;;;11.50;4.47;;;11.50;99.90;;;;;;5048685;28;20469;-78
2023/10/25 10:22:17;;;;;;;9.77;4.65;;;11.50;99.90;;;;;;5047330;28;20021;-79
2023/10/25 10:24:45;;;;;;;8.25;4.10;;;11.40;99.90;;;;;;5054170;28;20016;-80
2023/10/25 10:27:25;;;;;;;8.40;4.30;;;11.50;99.90;;;;;;5038470;28;20039;-81
2023/10/25 10:29:51;;;;;;;10.20;4.10;;;11.50;99.90;;;;;;5047749;28;20071;-79
2023/10/25 10:32:17;;;;;;;8.60;4.25;;;11.50;99.90;;;;;;5046240;28;20025;-81
2023/10/25 10:34:44;;;;;;;7.93;3.80;;;11.50;99.90;;;;;;5047610;28;20108;-80
2023/10/25 10:37:16;;;;;;;8.85;3.92;;;11.50;99.90;;;;;;5038132;28;20084;-81
2023/10/25 10:39:59;;;;;;;9.65;4.63;;;11.50;99.90;;;;;;5043330;28;20018;-80
2023/10/25 10:42:31;;;;;;;7.88;4.68;;;11.50;99.90;;;;;;5043093;28;20159;-81
2023/10/25 10:45:05;;;;;;;8.48;4.28;;;11.50;99.90;;;;;;5045985;28;20040;-80
2023/10/25 10:47:37;;;;;;;9.07;4.28;;;11.50;99.90;;;;;;5055770;28;20021;-80
2023/10/25 10:50:15;;;;;;;9.43;4.65;;;11.50;99.90;;;;;;5044229;28;20028;-81
2023/10/25 10:52:42;;;;;;;7.90;3.95;;;11.50;99.90;;;;;;5036259;28;20504;-81
2023/10/25 10:55:12;;;;;;;11.00;5.00;;;11.60;99.90;;;;;;5046586;28;20773;-80
2023/10/25 10:57:38;;;;;;;8.27;3.92;;;11.60;99.90;;;;;;5042859;28;20045;-80
2023/10/25 11:00:08;;;;;;;6.40;4.00;;;11.60;99.90;;;;;;5046878;28;20018;-80
2023/10/25 11:02:44;;;;;;;6.28;3.50;;;11.60;99.90;;;;;;5048721;28;20021;-81
2023/10/25 11:05:09;;;;;;;8.55;3.78;;;11.60;99.90;;;;;;5048223;28;20114;-79
2023/10/25 11:07:35;;;;;;;7.65;3.72;;;11.60;99.90;;;;;;5057518;28;20543;-80
2023/10/25 11:10:01;;;;;;;10.32;4.00;;;11.60;99.90;;;;;;5053944;28;20032;-79
2023/10/25 11:12:26;;;;;;;10.20;4.03;;;11.60;99.90;;;;;;5045649;28;20051;-78
2023/10/25 11:14:53;;;;;;;8.38;3.95;;;11.60;99.90;;;;;;5051878;28;20077;-79
2023/10/25 11:17:19;;;;;;;15.48;3.88;;;11.60;99.90;;;;;;5055886;28;20013;-80
2023/10/25 11:19:46;;;;;;;7.75;3.38;;;11.60;99.90;;;;;;5046995;28;20032;-79
2023/10/25 11:22:12;;;;;;;7.60;3.88;;;11.60;99.90;;;;;;5055872;28;20052;-79
2023/10/25 11:24:38;;;;;;;7.75;3.88;;;11.60;99.90;;;;;;5053461;28;20035;-79
2023/10/25 11:27:05;;;;;;;10.68;4.45;;;11.60;99.90;;;;;;5049135;28;20500;-78
2023/10/25 11:29:37;;;;;;;6.03;2.97;;;11.70;99.90;;;;;;5060028;28;20029;-77
2023/10/25 11:32:11;;;;;;;7.93;3.47;;;11.70;99.90;;;;;;5063981;28;20033;-77
2023/10/25 11:34:41;;;;;;;8.30;3.42;;;11.70;99.90;;;;;;5059434;28;20063;-76
2023/10/25 11:37:07;;;;;;;7.60;3.90;;;11.70;99.90;;;;;;5052308;28;20163;-77
2023/10/25 11:39:53;;;;;;;11.27;3.72;;;11.70;99.90;;;;;;5059857;28;20032;-78
2023/10/25 11:42:19;;;;;;;7.70;3.42;;;11.70;99.90;;;;;;5054678;28;20021;-76
2023/10/25 11:44:45;;;;;;;8.30;3.50;;;11.70;99.90;;;;;;5056027;28;20089;-77
2023/10/25 11:47:21;;;;;;;7.85;3.35;;;11.70;99.90;;;;;;5055065;28;20017;-78
2023/10/25 11:49:55;;;;;;;6.18;2.58;;;11.70;99.90;;;;;;5056773;28;20017;-78
2023/10/25 11:52:26;;;;;;;5.50;3.03;;;11.70;99.90;;;;;;5059954;28;20028;-77
2023/10/25 11:54:55;;;;;;;8.50;3.17;;;11.60;99.90;;;;;;5048886;28;20142;-77
2023/10/25 11:57:42;;;;;;;7.15;3.17;;;11.70;99.90;;;;;;5062930;28;20045;-76
2023/10/25 12:00:08;;;;;;;5.93;3.38;;;11.60;99.90;;;;;;5049252;28;20092;-76
2023/10/25 12:02:35;;;;;;;6.60;3.45;;;11.60;99.90;;;;;;5054780;28;20032;-76
2023/10/25 12:05:01;;;;;;;7.28;3.80;;;11.60;99.90;;;;;;5048196;28;20123;-76
2023/10/25 12:07:27;;;;;;;8.00;3.47;;;11.60;99.90;;;;;;5057599;28;20068;-77
2023/10/25 12:09:53;;;;;;;8.07;4.35;;;11.60;99.90;;;;;;5058191;28;20029;-77
2023/10/25 12:12:20;;;;;;;10.23;3.95;;;11.60;99.90;;;;;;5056336;28;20025;-78
2023/10/25 12:14:46;;;;;;;7.03;3.13;;;11.60;99.90;;;;;;5043952;28;20050;-77
2023/10/25 12:17:12;;;;;;;8.77;3.90;;;11.60;99.90;;;;;;5063430;28;20024;-77
2023/10/25 12:19:41;;;;;;;6.70;3.25;;;11.60;99.90;;;;;;5060505;28;20020;-78
2023/10/25 12:22:09;;;;;;;6.25;3.58;;;11.60;99.90;;;;;;5052567;28;20024;-76
2023/10/25 12:24:38;;;;;;;7.85;3.47;;;11.60;99.90;;;;;;5058030;28;20028;-77
2023/10/25 12:27:05;;;;;;;6.15;3.30;;;11.60;99.90;;;;;;5050638;28;20125;-76
2023/10/25 12:29:31;;;;;;;8.55;3.25;;;11.60;99.90;;;;;;5041156;28;20020;-77
2023/10/25 12:31:57;;;;;;;6.88;2.92;;;11.70;99.90;;;;;;5050606;28;20024;-77
2023/10/25 12:34:23;;;;;;;7.43;3.13;;;11.70;99.90;;;;;;5053558;28;20083;-77
2023/10/25 12:36:49;;;;;;;8.13;2.97;;;11.70;99.90;;;;;;5061216;28;20017;-78
2023/10/25 12:39:16;;;;;;;5.60;3.00;;;11.60;99.90;;;;;;5050610;28;20051;-78
2023/10/25 12:41:42;;;;;;;5.53;2.80;;;11.70;99.90;;;;;;5051255;28;20017;-78
2023/10/25 12:44:08;;;;;;;6.78;2.85;;;11.60;99.90;;;;;;5054144;28;20024;-77
2023/10/25 12:46:37;;;;;;;10.10;2.70;;;11.70;99.90;;;;;;5048936;28;20513;-76
2023/10/25 12:49:03;;;;;;;5.10;2.70;;;11.60;99.90;;;;;;5051735;28;20029;-77